sensor_id;sensor_type;location;lat;lon;timestamp;P1;durP1;ratioP1;P2;durP2;ratioP2
64684;SDS011;51109;47.414;18.954;2023-06-04T00:00:49;5.20;;;2.40;;
64684;SDS011;51109;47.414;18.954;2023-06-04T00:03:15;5.40;;;2.83;;
64684;SDS011;51109;47.414;18.954;2023-06-04T00:05:41;4.07;;;2.80;;
64684;SDS011;51109;47.414;18.954;2023-06-04T00:08:07;3.55;;;2.30;;
64684;SDS011;51109;47.414;18.954;2023-06-04T00:10:33;3.10;;;2.20;;
64684;SDS011;51109;47.414;18.954;2023-06-04T00:12:59;4.97;;;2.53;;
64684;SDS011;51109;47.414;18.954;2023-06-04T00:15:25;4.50;;;2.50;;
64684;SDS011;51109;47.414;18.954;2023-06-04T00:17:51;4.00;;;2.15;;
64684;SDS011;51109;47.414;18.954;2023-06-04T00:20:17;6.22;;;2.63;;
64684;SDS011;51109;47.414;18.954;2023-06-04T00:22:43;5.28;;;2.50;;
64684;SDS011;51109;47.414;18.954;2023-06-04T00:25:09;3.10;;;2.30;;
64684;SDS011;51109;47.414;18.954;2023-06-04T00:27:36;6.05;;;2.30;;
64684;SDS011;51109;47.414;18.954;2023-06-04T00:30:02;7.05;;;2.20;;
64684;SDS011;51109;47.414;18.954;2023-06-04T00:32:29;5.25;;;2.30;;
64684;SDS011;51109;47.414;18.954;2023-06-04T00:34:55;13.07;;;2.05;;
64684;SDS011;51109;47.414;18.954;2023-06-04T00:37:23;5.78;;;2.17;;
64684;SDS011;51109;47.414;18.954;2023-06-04T00:39:49;3.42;;;1.67;;
64684;SDS011;51109;47.414;18.954;2023-06-04T00:42:16;4.13;;;2.00;;
64684;SDS011;51109;47.414;18.954;2023-06-04T00:44:42;4.43;;;1.92;;
64684;SDS011;51109;47.414;18.954;2023-06-04T00:47:17;3.60;;;1.80;;
64684;SDS011;51109;47.414;18.954;2023-06-04T00:49:45;5.25;;;2.08;;
64684;SDS011;51109;47.414;18.954;2023-06-04T00:52:14;2.80;;;2.03;;
64684;SDS011;51109;47.414;18.954;2023-06-04T00:54:41;4.13;;;2.60;;
64684;SDS011;51109;47.414;18.954;2023-06-04T00:57:07;4.78;;;2.00;;
64684;SDS011;51109;47.414;18.954;2023-06-04T00:59:34;6.45;;;2.28;;
64684;SDS011;51109;47.414;18.954;2023-06-04T01:04:48;5.40;;;2.20;;
64684;SDS011;51109;47.414;18.954;2023-06-04T01:07:15;2.90;;;1.92;;
64684;SDS011;51109;47.414;18.954;2023-06-04T01:09:43;4.65;;;2.28;;
64684;SDS011;51109;47.414;18.954;2023-06-04T01:12:10;2.92;;;2.22;;
64684;SDS011;51109;47.414;18.954;2023-06-04T01:14:36;4.93;;;1.90;;
64684;SDS011;51109;47.414;18.954;2023-06-04T01:19:59;4.32;;;2.00;;
64684;SDS011;51109;47.414;18.954;2023-06-04T01:22:31;4.95;;;2.83;;
64684;SDS011;51109;47.414;18.954;2023-06-04T01:25:19;4.90;;;1.98;;
64684;SDS011;51109;47.414;18.954;2023-06-04T01:27:52;3.33;;;2.13;;
64684;SDS011;51109;47.414;18.954;2023-06-04T01:30:25;3.63;;;2.08;;
64684;SDS011;51109;47.414;18.954;2023-06-04T01:32:53;6.63;;;2.00;;
64684;SDS011;51109;47.414;18.954;2023-06-04T01:35:20;4.50;;;2.05;;
64684;SDS011;51109;47.414;18.954;2023-06-04T01:37:47;3.58;;;1.88;;
64684;SDS011;51109;47.414;18.954;2023-06-04T01:40:14;6.35;;;2.08;;
64684;SDS011;51109;47.414;18.954;2023-06-04T01:42:40;4.55;;;1.85;;
64684;SDS011;51109;47.414;18.954;2023-06-04T01:45:07;2.22;;;1.65;;
64684;SDS011;51109;47.414;18.954;2023-06-04T01:47:33;2.25;;;1.75;;
64684;SDS011;51109;47.414;18.954;2023-06-04T01:50:00;2.47;;;1.70;;
64684;SDS011;51109;47.414;18.954;2023-06-04T01:52:27;4.72;;;2.45;;
64684;SDS011;51109;47.414;18.954;2023-06-04T01:54:53;5.57;;;2.03;;
64684;SDS011;51109;47.414;18.954;2023-06-04T01:57:20;4.57;;;1.70;;
64684;SDS011;51109;47.414;18.954;2023-06-04T01:59:47;4.43;;;2.10;;
64684;SDS011;51109;47.414;18.954;2023-06-04T02:02:13;2.97;;;1.70;;
64684;SDS011;51109;47.414;18.954;2023-06-04T02:04:40;4.15;;;1.77;;
64684;SDS011;51109;47.414;18.954;2023-06-04T02:07:10;6.53;;;2.25;;
64684;SDS011;51109;47.414;18.954;2023-06-04T02:09:39;5.20;;;2.13;;
64684;SDS011;51109;47.414;18.954;2023-06-04T02:12:05;4.68;;;1.80;;
64684;SDS011;51109;47.414;18.954;2023-06-04T02:14:31;4.07;;;2.20;;
64684;SDS011;51109;47.414;18.954;2023-06-04T02:16:57;5.75;;;2.40;;
64684;SDS011;51109;47.414;18.954;2023-06-04T02:19:23;3.10;;;2.15;;
64684;SDS011;51109;47.414;18.954;2023-06-04T02:21:51;5.63;;;2.05;;
64684;SDS011;51109;47.414;18.954;2023-06-04T02:24:21;5.38;;;1.90;;
64684;SDS011;51109;47.414;18.954;2023-06-04T02:26:47;4.45;;;1.98;;
64684;SDS011;51109;47.414;18.954;2023-06-04T02:29:13;3.60;;;1.80;;
64684;SDS011;51109;47.414;18.954;2023-06-04T02:31:39;7.78;;;1.98;;
64684;SDS011;51109;47.414;18.954;2023-06-04T02:34:05;6.57;;;1.83;;
64684;SDS011;51109;47.414;18.954;2023-06-04T02:36:30;5.35;;;1.90;;
64684;SDS011;51109;47.414;18.954;2023-06-04T02:38:56;2.53;;;1.88;;
64684;SDS011;51109;47.414;18.954;2023-06-04T02:41:23;3.47;;;1.80;;
64684;SDS011;51109;47.414;18.954;2023-06-04T02:43:49;2.70;;;1.70;;
64684;SDS011;51109;47.414;18.954;2023-06-04T02:46:14;2.22;;;2.03;;
64684;SDS011;51109;47.414;18.954;2023-06-04T02:48:41;2.10;;;1.48;;
64684;SDS011;51109;47.414;18.954;2023-06-04T02:51:06;3.42;;;1.73;;
64684;SDS011;51109;47.414;18.954;2023-06-04T02:53:35;2.33;;;1.70;;
64684;SDS011;51109;47.414;18.954;2023-06-04T02:56:01;2.40;;;1.60;;
64684;SDS011;51109;47.414;18.954;2023-06-04T02:58:28;1.58;;;1.42;;
64684;SDS011;51109;47.414;18.954;2023-06-04T03:00:54;4.00;;;1.90;;
64684;SDS011;51109;47.414;18.954;2023-06-04T03:03:22;3.85;;;1.63;;
64684;SDS011;51109;47.414;18.954;2023-06-04T03:05:48;2.13;;;1.73;;
64684;SDS011;51109;47.414;18.954;2023-06-04T03:08:14;4.78;;;1.88;;
64684;SDS011;51109;47.414;18.954;2023-06-04T03:10:40;2.50;;;1.80;;
64684;SDS011;51109;47.414;18.954;2023-06-04T03:13:06;6.60;;;1.90;;
64684;SDS011;51109;47.414;18.954;2023-06-04T03:15:32;3.85;;;1.90;;
64684;SDS011;51109;47.414;18.954;2023-06-04T03:17:58;2.42;;;1.90;;
64684;SDS011;51109;47.414;18.954;2023-06-04T03:20:24;2.55;;;1.80;;
64684;SDS011;51109;47.414;18.954;2023-06-04T03:22:51;2.33;;;1.83;;
64684;SDS011;51109;47.414;18.954;2023-06-04T03:25:17;11.00;;;3.13;;
64684;SDS011;51109;47.414;18.954;2023-06-04T03:27:43;2.60;;;1.90;;
64684;SDS011;51109;47.414;18.954;2023-06-04T03:32:41;3.38;;;1.73;;
64684;SDS011;51109;47.414;18.954;2023-06-04T03:35:09;3.42;;;1.80;;
64684;SDS011;51109;47.414;18.954;2023-06-04T03:37:34;2.78;;;1.80;;
64684;SDS011;51109;47.414;18.954;2023-06-04T03:40:00;3.50;;;2.05;;
64684;SDS011;51109;47.414;18.954;2023-06-04T03:42:31;4.05;;;1.90;;
64684;SDS011;51109;47.414;18.954;2023-06-04T03:44:57;3.60;;;2.00;;
64684;SDS011;51109;47.414;18.954;2023-06-04T03:47:23;2.83;;;2.03;;
64684;SDS011;51109;47.414;18.954;2023-06-04T03:49:49;6.28;;;2.10;;
64684;SDS011;51109;47.414;18.954;2023-06-04T03:52:15;4.72;;;2.05;;
64684;SDS011;51109;47.414;18.954;2023-06-04T03:54:41;5.85;;;2.28;;
64684;SDS011;51109;47.414;18.954;2023-06-04T03:57:07;5.35;;;2.88;;
64684;SDS011;51109;47.414;18.954;2023-06-04T03:59:32;6.13;;;2.78;;
64684;SDS011;51109;47.414;18.954;2023-06-04T04:01:58;3.60;;;2.15;;
64684;SDS011;51109;47.414;18.954;2023-06-04T04:04:24;2.80;;;1.95;;
64684;SDS011;51109;47.414;18.954;2023-06-04T04:06:50;3.72;;;2.40;;
64684;SDS011;51109;47.414;18.954;2023-06-04T04:09:16;2.47;;;1.67;;
64684;SDS011;51109;47.414;18.954;2023-06-04T04:11:42;4.28;;;1.98;;
64684;SDS011;51109;47.414;18.954;2023-06-04T04:14:08;3.13;;;2.00;;
64684;SDS011;51109;47.414;18.954;2023-06-04T04:16:34;4.43;;;1.58;;
64684;SDS011;51109;47.414;18.954;2023-06-04T04:19:00;2.72;;;1.90;;
64684;SDS011;51109;47.414;18.954;2023-06-04T04:21:25;2.65;;;1.92;;
64684;SDS011;51109;47.414;18.954;2023-06-04T04:23:51;2.97;;;1.95;;
64684;SDS011;51109;47.414;18.954;2023-06-04T04:26:17;4.45;;;1.98;;
64684;SDS011;51109;47.414;18.954;2023-06-04T04:28:43;4.50;;;2.20;;
64684;SDS011;51109;47.414;18.954;2023-06-04T04:31:09;3.40;;;1.75;;
64684;SDS011;51109;47.414;18.954;2023-06-04T04:33:38;3.08;;;1.70;;
64684;SDS011;51109;47.414;18.954;2023-06-04T04:36:05;8.10;;;1.70;;
64684;SDS011;51109;47.414;18.954;2023-06-04T04:38:34;4.10;;;1.95;;
64684;SDS011;51109;47.414;18.954;2023-06-04T04:41:00;5.07;;;2.00;;
64684;SDS011;51109;47.414;18.954;2023-06-04T04:43:33;8.27;;;2.10;;
64684;SDS011;51109;47.414;18.954;2023-06-04T04:46:00;4.32;;;1.70;;
64684;SDS011;51109;47.414;18.954;2023-06-04T04:48:26;2.45;;;1.80;;
64684;SDS011;51109;47.414;18.954;2023-06-04T04:50:52;6.43;;;2.20;;
64684;SDS011;51109;47.414;18.954;2023-06-04T04:53:19;5.25;;;2.00;;
64684;SDS011;51109;47.414;18.954;2023-06-04T04:55:45;2.42;;;1.63;;
64684;SDS011;51109;47.414;18.954;2023-06-04T04:58:11;3.65;;;1.95;;
64684;SDS011;51109;47.414;18.954;2023-06-04T05:00:37;3.67;;;1.92;;
64684;SDS011;51109;47.414;18.954;2023-06-04T05:03:02;2.97;;;1.83;;
64684;SDS011;51109;47.414;18.954;2023-06-04T05:05:28;2.85;;;2.10;;
64684;SDS011;51109;47.414;18.954;2023-06-04T05:07:54;3.70;;;1.77;;
64684;SDS011;51109;47.414;18.954;2023-06-04T05:10:20;6.75;;;2.10;;
64684;SDS011;51109;47.414;18.954;2023-06-04T05:12:53;4.53;;;2.00;;
64684;SDS011;51109;47.414;18.954;2023-06-04T05:15:19;3.35;;;1.83;;
64684;SDS011;51109;47.414;18.954;2023-06-04T05:17:46;2.92;;;2.17;;
64684;SDS011;51109;47.414;18.954;2023-06-04T05:20:12;7.00;;;2.03;;
64684;SDS011;51109;47.414;18.954;2023-06-04T05:22:39;2.85;;;1.98;;
64684;SDS011;51109;47.414;18.954;2023-06-04T05:25:05;5.13;;;2.15;;
64684;SDS011;51109;47.414;18.954;2023-06-04T05:27:33;5.25;;;2.40;;
64684;SDS011;51109;47.414;18.954;2023-06-04T05:30:00;2.65;;;2.08;;
64684;SDS011;51109;47.414;18.954;2023-06-04T05:32:27;3.90;;;2.10;;
64684;SDS011;51109;47.414;18.954;2023-06-04T05:34:57;4.35;;;1.90;;
64684;SDS011;51109;47.414;18.954;2023-06-04T05:37:24;5.53;;;2.15;;
64684;SDS011;51109;47.414;18.954;2023-06-04T05:39:52;3.80;;;2.15;;
64684;SDS011;51109;47.414;18.954;2023-06-04T05:42:18;2.70;;;1.85;;
64684;SDS011;51109;47.414;18.954;2023-06-04T05:44:45;3.33;;;1.70;;
64684;SDS011;51109;47.414;18.954;2023-06-04T05:47:10;4.28;;;2.03;;
64684;SDS011;51109;47.414;18.954;2023-06-04T05:49:36;4.22;;;1.80;;
64684;SDS011;51109;47.414;18.954;2023-06-04T05:52:02;7.22;;;2.00;;
64684;SDS011;51109;47.414;18.954;2023-06-04T05:54:29;4.78;;;1.77;;
64684;SDS011;51109;47.414;18.954;2023-06-04T05:56:55;2.97;;;1.83;;
64684;SDS011;51109;47.414;18.954;2023-06-04T05:59:21;3.90;;;1.80;;
64684;SDS011;51109;47.414;18.954;2023-06-04T06:01:47;6.07;;;1.73;;
64684;SDS011;51109;47.414;18.954;2023-06-04T06:04:14;3.65;;;1.80;;
64684;SDS011;51109;47.414;18.954;2023-06-04T06:06:41;2.50;;;2.15;;
64684;SDS011;51109;47.414;18.954;2023-06-04T06:09:14;8.90;;;2.07;;
64684;SDS011;51109;47.414;18.954;2023-06-04T06:11:40;5.75;;;2.05;;
64684;SDS011;51109;47.414;18.954;2023-06-04T06:14:06;3.15;;;1.80;;
64684;SDS011;51109;47.414;18.954;2023-06-04T06:16:32;3.13;;;1.83;;
64684;SDS011;51109;47.414;18.954;2023-06-04T06:18:59;6.57;;;2.30;;
64684;SDS011;51109;47.414;18.954;2023-06-04T06:21:26;3.22;;;1.92;;
64684;SDS011;51109;47.414;18.954;2023-06-04T06:23:53;6.10;;;2.10;;
64684;SDS011;51109;47.414;18.954;2023-06-04T06:26:19;2.10;;;1.70;;
64684;SDS011;51109;47.414;18.954;2023-06-04T06:28:47;5.35;;;2.72;;
64684;SDS011;51109;47.414;18.954;2023-06-04T06:31:13;3.53;;;2.33;;
64684;SDS011;51109;47.414;18.954;2023-06-04T06:33:40;7.97;;;2.00;;
64684;SDS011;51109;47.414;18.954;2023-06-04T06:36:07;4.15;;;2.08;;
64684;SDS011;51109;47.414;18.954;2023-06-04T06:38:34;6.20;;;2.00;;
64684;SDS011;51109;47.414;18.954;2023-06-04T06:41:00;4.30;;;2.00;;
64684;SDS011;51109;47.414;18.954;2023-06-04T06:43:26;4.22;;;1.83;;
64684;SDS011;51109;47.414;18.954;2023-06-04T06:45:52;3.88;;;1.75;;
64684;SDS011;51109;47.414;18.954;2023-06-04T06:48:18;5.65;;;2.10;;
64684;SDS011;51109;47.414;18.954;2023-06-04T06:50:43;3.22;;;2.03;;
64684;SDS011;51109;47.414;18.954;2023-06-04T06:53:09;2.92;;;1.85;;
64684;SDS011;51109;47.414;18.954;2023-06-04T06:55:36;2.90;;;1.92;;
64684;SDS011;51109;47.414;18.954;2023-06-04T06:58:01;3.50;;;2.10;;
64684;SDS011;51109;47.414;18.954;2023-06-04T07:00:27;3.50;;;2.00;;
64684;SDS011;51109;47.414;18.954;2023-06-04T07:02:53;4.82;;;2.00;;
64684;SDS011;51109;47.414;18.954;2023-06-04T07:05:19;3.05;;;1.92;;
64684;SDS011;51109;47.414;18.954;2023-06-04T07:07:45;2.88;;;1.80;;
64684;SDS011;51109;47.414;18.954;2023-06-04T07:10:11;2.03;;;1.80;;
64684;SDS011;51109;47.414;18.954;2023-06-04T07:12:38;3.13;;;1.70;;
64684;SDS011;51109;47.414;18.954;2023-06-04T07:15:05;6.90;;;1.90;;
64684;SDS011;51109;47.414;18.954;2023-06-04T07:17:33;6.90;;;2.30;;
64684;SDS011;51109;47.414;18.954;2023-06-04T07:19:59;4.20;;;2.72;;
64684;SDS011;51109;47.414;18.954;2023-06-04T07:22:25;6.40;;;2.25;;
64684;SDS011;51109;47.414;18.954;2023-06-04T07:24:51;6.38;;;2.00;;
64684;SDS011;51109;47.414;18.954;2023-06-04T07:27:18;7.15;;;2.05;;
64684;SDS011;51109;47.414;18.954;2023-06-04T07:29:44;3.88;;;2.00;;
64684;SDS011;51109;47.414;18.954;2023-06-04T07:32:10;6.60;;;2.20;;
64684;SDS011;51109;47.414;18.954;2023-06-04T07:34:39;5.57;;;2.20;;
64684;SDS011;51109;47.414;18.954;2023-06-04T07:37:05;4.53;;;2.08;;
64684;SDS011;51109;47.414;18.954;2023-06-04T07:39:31;7.57;;;2.08;;
64684;SDS011;51109;47.414;18.954;2023-06-04T07:41:57;4.50;;;2.13;;
64684;SDS011;51109;47.414;18.954;2023-06-04T07:44:23;3.50;;;1.92;;
64684;SDS011;51109;47.414;18.954;2023-06-04T07:46:48;4.20;;;1.88;;
64684;SDS011;51109;47.414;18.954;2023-06-04T07:49:14;4.22;;;1.83;;
64684;SDS011;51109;47.414;18.954;2023-06-04T07:51:40;4.05;;;1.92;;
64684;SDS011;51109;47.414;18.954;2023-06-04T07:54:07;2.63;;;1.98;;
64684;SDS011;51109;47.414;18.954;2023-06-04T07:56:33;5.47;;;1.90;;
64684;SDS011;51109;47.414;18.954;2023-06-04T07:58:58;8.90;;;1.90;;
64684;SDS011;51109;47.414;18.954;2023-06-04T08:01:24;4.80;;;2.08;;
64684;SDS011;51109;47.414;18.954;2023-06-04T08:03:50;3.80;;;1.90;;
64684;SDS011;51109;47.414;18.954;2023-06-04T08:06:16;6.35;;;2.17;;
64684;SDS011;51109;47.414;18.954;2023-06-04T08:08:42;6.93;;;1.92;;
64684;SDS011;51109;47.414;18.954;2023-06-04T08:11:14;3.50;;;2.00;;
64684;SDS011;51109;47.414;18.954;2023-06-04T08:13:40;7.50;;;2.20;;
64684;SDS011;51109;47.414;18.954;2023-06-04T08:16:07;6.18;;;2.03;;
64684;SDS011;51109;47.414;18.954;2023-06-04T08:18:38;3.30;;;2.08;;
64684;SDS011;51109;47.414;18.954;2023-06-04T08:21:05;2.78;;;1.75;;
64684;SDS011;51109;47.414;18.954;2023-06-04T08:23:31;3.60;;;1.63;;
64684;SDS011;51109;47.414;18.954;2023-06-04T08:25:57;11.85;;;2.22;;
64684;SDS011;51109;47.414;18.954;2023-06-04T08:28:24;6.28;;;1.88;;
64684;SDS011;51109;47.414;18.954;2023-06-04T08:30:50;6.32;;;1.75;;
64684;SDS011;51109;47.414;18.954;2023-06-04T08:33:16;4.57;;;1.58;;
64684;SDS011;51109;47.414;18.954;2023-06-04T08:35:41;3.20;;;2.20;;
64684;SDS011;51109;47.414;18.954;2023-06-04T08:38:07;5.70;;;2.40;;
64684;SDS011;51109;47.414;18.954;2023-06-04T08:40:33;8.27;;;1.80;;
64684;SDS011;51109;47.414;18.954;2023-06-04T08:43:00;7.65;;;2.40;;
64684;SDS011;51109;47.414;18.954;2023-06-04T08:45:26;4.22;;;2.05;;
64684;SDS011;51109;47.414;18.954;2023-06-04T08:47:52;23.17;;;3.28;;
64684;SDS011;51109;47.414;18.954;2023-06-04T08:50:20;6.00;;;2.17;;
64684;SDS011;51109;47.414;18.954;2023-06-04T08:52:51;5.80;;;2.08;;
64684;SDS011;51109;47.414;18.954;2023-06-04T08:55:19;3.10;;;1.95;;
64684;SDS011;51109;47.414;18.954;2023-06-04T08:57:47;11.88;;;2.33;;
64684;SDS011;51109;47.414;18.954;2023-06-04T09:00:16;7.07;;;2.00;;
64684;SDS011;51109;47.414;18.954;2023-06-04T09:02:43;8.05;;;2.10;;
64684;SDS011;51109;47.414;18.954;2023-06-04T09:05:14;25.10;;;4.68;;
64684;SDS011;51109;47.414;18.954;2023-06-04T09:07:46;10.48;;;2.75;;
64684;SDS011;51109;47.414;18.954;2023-06-04T09:10:15;36.40;;;6.43;;
64684;SDS011;51109;47.414;18.954;2023-06-04T09:12:45;55.83;;;8.90;;
64684;SDS011;51109;47.414;18.954;2023-06-04T09:15:12;73.47;;;10.45;;
64684;SDS011;51109;47.414;18.954;2023-06-04T09:17:39;22.13;;;4.35;;
64684;SDS011;51109;47.414;18.954;2023-06-04T09:20:05;13.77;;;2.97;;
64684;SDS011;51109;47.414;18.954;2023-06-04T09:22:34;3.60;;;1.67;;
64684;SDS011;51109;47.414;18.954;2023-06-04T09:25:03;5.80;;;2.00;;
64684;SDS011;51109;47.414;18.954;2023-06-04T09:27:38;4.40;;;1.90;;
64684;SDS011;51109;47.414;18.954;2023-06-04T09:32:31;4.03;;;2.00;;
64684;SDS011;51109;47.414;18.954;2023-06-04T09:37:42;5.72;;;1.98;;
64684;SDS011;51109;47.414;18.954;2023-06-04T09:40:19;3.58;;;2.13;;
64684;SDS011;51109;47.414;18.954;2023-06-04T09:42:45;4.75;;;1.90;;
64684;SDS011;51109;47.414;18.954;2023-06-04T09:45:26;9.30;;;2.42;;
64684;SDS011;51109;47.414;18.954;2023-06-04T09:47:54;5.55;;;2.42;;
64684;SDS011;51109;47.414;18.954;2023-06-04T09:50:24;8.63;;;1.92;;
64684;SDS011;51109;47.414;18.954;2023-06-04T09:52:52;5.93;;;2.33;;
64684;SDS011;51109;47.414;18.954;2023-06-04T09:55:18;2.10;;;1.90;;
64684;SDS011;51109;47.414;18.954;2023-06-04T09:57:46;4.55;;;2.22;;
64684;SDS011;51109;47.414;18.954;2023-06-04T10:00:13;6.35;;;2.58;;
64684;SDS011;51109;47.414;18.954;2023-06-04T10:02:45;3.88;;;2.35;;
64684;SDS011;51109;47.414;18.954;2023-06-04T10:05:13;8.75;;;2.78;;
64684;SDS011;51109;47.414;18.954;2023-06-04T10:07:43;4.03;;;2.45;;
64684;SDS011;51109;47.414;18.954;2023-06-04T10:10:15;6.03;;;2.40;;
64684;SDS011;51109;47.414;18.954;2023-06-04T10:12:43;6.57;;;2.20;;
64684;SDS011;51109;47.414;18.954;2023-06-04T10:15:11;6.65;;;2.45;;
64684;SDS011;51109;47.414;18.954;2023-06-04T10:17:38;6.88;;;2.50;;
64684;SDS011;51109;47.414;18.954;2023-06-04T10:20:08;9.68;;;2.17;;
64684;SDS011;51109;47.414;18.954;2023-06-04T10:22:35;7.05;;;2.70;;
64684;SDS011;51109;47.414;18.954;2023-06-04T10:25:02;3.13;;;1.92;;
64684;SDS011;51109;47.414;18.954;2023-06-04T10:27:32;5.53;;;2.47;;
64684;SDS011;51109;47.414;18.954;2023-06-04T10:30:01;8.50;;;2.88;;
64684;SDS011;51109;47.414;18.954;2023-06-04T10:32:28;4.38;;;2.30;;
64684;SDS011;51109;47.414;18.954;2023-06-04T10:34:55;10.13;;;2.92;;
64684;SDS011;51109;47.414;18.954;2023-06-04T10:37:23;7.95;;;3.00;;
64684;SDS011;51109;47.414;18.954;2023-06-04T10:39:53;7.30;;;2.83;;
64684;SDS011;51109;47.414;18.954;2023-06-04T10:42:20;7.55;;;2.33;;
64684;SDS011;51109;47.414;18.954;2023-06-04T10:44:47;5.85;;;2.15;;
64684;SDS011;51109;47.414;18.954;2023-06-04T10:47:18;5.40;;;2.30;;
64684;SDS011;51109;47.414;18.954;2023-06-04T10:49:53;3.05;;;1.92;;
64684;SDS011;51109;47.414;18.954;2023-06-04T10:52:23;4.43;;;2.10;;
64684;SDS011;51109;47.414;18.954;2023-06-04T10:54:48;4.45;;;2.60;;
64684;SDS011;51109;47.414;18.954;2023-06-04T10:57:18;2.38;;;1.83;;
64684;SDS011;51109;47.414;18.954;2023-06-04T10:59:57;5.70;;;1.85;;
64684;SDS011;51109;47.414;18.954;2023-06-04T11:02:24;4.15;;;2.30;;
64684;SDS011;51109;47.414;18.954;2023-06-04T11:10:10;2.95;;;2.42;;
64684;SDS011;51109;47.414;18.954;2023-06-04T11:12:41;4.53;;;2.28;;
64684;SDS011;51109;47.414;18.954;2023-06-04T11:15:12;3.15;;;2.10;;
64684;SDS011;51109;47.414;18.954;2023-06-04T11:17:52;4.03;;;2.15;;
64684;SDS011;51109;47.414;18.954;2023-06-04T11:20:19;3.65;;;2.00;;
64684;SDS011;51109;47.414;18.954;2023-06-04T11:22:53;1.95;;;1.75;;
64684;SDS011;51109;47.414;18.954;2023-06-04T11:25:21;5.20;;;2.17;;
64684;SDS011;51109;47.414;18.954;2023-06-04T11:27:54;4.43;;;2.00;;
64684;SDS011;51109;47.414;18.954;2023-06-04T11:30:21;5.70;;;2.08;;
64684;SDS011;51109;47.414;18.954;2023-06-04T11:32:48;5.85;;;2.20;;
64684;SDS011;51109;47.414;18.954;2023-06-04T11:35:14;2.45;;;1.70;;
64684;SDS011;51109;47.414;18.954;2023-06-04T11:37:40;3.55;;;1.90;;
64684;SDS011;51109;47.414;18.954;2023-06-04T11:40:18;5.18;;;2.38;;
64684;SDS011;51109;47.414;18.954;2023-06-04T11:42:45;4.00;;;2.05;;
64684;SDS011;51109;47.414;18.954;2023-06-04T11:45:16;4.38;;;2.63;;
64684;SDS011;51109;47.414;18.954;2023-06-04T11:47:44;7.30;;;4.38;;
64684;SDS011;51109;47.414;18.954;2023-06-04T11:50:14;2.80;;;2.20;;
64684;SDS011;51109;47.414;18.954;2023-06-04T11:52:40;3.17;;;2.33;;
64684;SDS011;51109;47.414;18.954;2023-06-04T11:55:08;3.15;;;2.17;;
64684;SDS011;51109;47.414;18.954;2023-06-04T11:57:37;8.07;;;2.40;;
64684;SDS011;51109;47.414;18.954;2023-06-04T12:00:05;4.75;;;2.33;;
64684;SDS011;51109;47.414;18.954;2023-06-04T12:02:38;3.15;;;2.05;;
64684;SDS011;51109;47.414;18.954;2023-06-04T12:05:14;6.07;;;2.20;;
64684;SDS011;51109;47.414;18.954;2023-06-04T12:07:41;7.93;;;2.10;;
64684;SDS011;51109;47.414;18.954;2023-06-04T12:10:10;5.10;;;2.17;;
64684;SDS011;51109;47.414;18.954;2023-06-04T12:12:37;4.50;;;2.28;;
64684;SDS011;51109;47.414;18.954;2023-06-04T12:15:03;7.47;;;2.38;;
64684;SDS011;51109;47.414;18.954;2023-06-04T12:17:34;5.25;;;2.28;;
64684;SDS011;51109;47.414;18.954;2023-06-04T12:20:01;8.70;;;2.45;;
64684;SDS011;51109;47.414;18.954;2023-06-04T12:22:27;5.88;;;2.17;;
64684;SDS011;51109;47.414;18.954;2023-06-04T12:24:54;5.25;;;2.25;;
64684;SDS011;51109;47.414;18.954;2023-06-04T12:27:21;6.63;;;2.60;;
64684;SDS011;51109;47.414;18.954;2023-06-04T12:29:58;5.78;;;2.60;;
64684;SDS011;51109;47.414;18.954;2023-06-04T12:32:25;4.15;;;1.83;;
64684;SDS011;51109;47.414;18.954;2023-06-04T12:34:51;3.90;;;2.55;;
64684;SDS011;51109;47.414;18.954;2023-06-04T12:37:18;5.00;;;2.53;;
64684;SDS011;51109;47.414;18.954;2023-06-04T12:39:44;5.53;;;2.30;;
64684;SDS011;51109;47.414;18.954;2023-06-04T12:42:10;5.32;;;2.30;;
64684;SDS011;51109;47.414;18.954;2023-06-04T12:44:37;3.15;;;2.38;;
64684;SDS011;51109;47.414;18.954;2023-06-04T12:47:04;5.75;;;2.70;;
64684;SDS011;51109;47.414;18.954;2023-06-04T12:49:30;4.35;;;2.50;;
64684;SDS011;51109;47.414;18.954;2023-06-04T12:51:56;4.90;;;2.17;;
64684;SDS011;51109;47.414;18.954;2023-06-04T12:54:22;5.18;;;2.22;;
64684;SDS011;51109;47.414;18.954;2023-06-04T12:56:48;5.60;;;2.50;;
64684;SDS011;51109;47.414;18.954;2023-06-04T12:59:14;5.45;;;2.60;;
64684;SDS011;51109;47.414;18.954;2023-06-04T13:01:40;3.53;;;2.03;;
64684;SDS011;51109;47.414;18.954;2023-06-04T13:04:06;4.57;;;2.67;;
64684;SDS011;51109;47.414;18.954;2023-06-04T13:06:33;11.15;;;2.85;;
64684;SDS011;51109;47.414;18.954;2023-06-04T13:09:03;3.97;;;2.40;;
64684;SDS011;51109;47.414;18.954;2023-06-04T13:11:38;6.68;;;2.85;;
64684;SDS011;51109;47.414;18.954;2023-06-04T13:14:05;4.55;;;2.38;;
64684;SDS011;51109;47.414;18.954;2023-06-04T13:16:31;5.15;;;2.35;;
64684;SDS011;51109;47.414;18.954;2023-06-04T13:18:57;2.92;;;1.90;;
64684;SDS011;51109;47.414;18.954;2023-06-04T13:21:22;3.35;;;2.35;;
64684;SDS011;51109;47.414;18.954;2023-06-04T13:23:48;4.10;;;2.33;;
64684;SDS011;51109;47.414;18.954;2023-06-04T13:26:15;6.00;;;2.25;;
64684;SDS011;51109;47.414;18.954;2023-06-04T13:28:45;5.10;;;2.42;;
64684;SDS011;51109;47.414;18.954;2023-06-04T13:31:11;6.10;;;2.47;;
64684;SDS011;51109;47.414;18.954;2023-06-04T13:33:37;3.63;;;2.10;;
64684;SDS011;51109;47.414;18.954;2023-06-04T13:36:03;6.47;;;2.60;;
64684;SDS011;51109;47.414;18.954;2023-06-04T13:38:30;6.78;;;2.35;;
64684;SDS011;51109;47.414;18.954;2023-06-04T13:40:56;6.72;;;2.47;;
64684;SDS011;51109;47.414;18.954;2023-06-04T13:43:22;5.35;;;2.33;;
64684;SDS011;51109;47.414;18.954;2023-06-04T13:45:48;4.30;;;2.55;;
64684;SDS011;51109;47.414;18.954;2023-06-04T13:48:14;11.00;;;2.55;;
64684;SDS011;51109;47.414;18.954;2023-06-04T13:50:40;6.13;;;2.58;;
64684;SDS011;51109;47.414;18.954;2023-06-04T13:53:10;11.63;;;2.83;;
64684;SDS011;51109;47.414;18.954;2023-06-04T13:55:38;4.90;;;2.50;;
64684;SDS011;51109;47.414;18.954;2023-06-04T13:58:04;6.85;;;2.53;;
64684;SDS011;51109;47.414;18.954;2023-06-04T14:00:30;6.00;;;2.53;;
64684;SDS011;51109;47.414;18.954;2023-06-04T14:02:58;4.78;;;2.65;;
64684;SDS011;51109;47.414;18.954;2023-06-04T14:05:24;9.45;;;3.25;;
64684;SDS011;51109;47.414;18.954;2023-06-04T14:07:52;5.72;;;2.83;;
64684;SDS011;51109;47.414;18.954;2023-06-04T14:10:18;6.82;;;2.70;;
64684;SDS011;51109;47.414;18.954;2023-06-04T14:12:44;4.22;;;2.30;;
64684;SDS011;51109;47.414;18.954;2023-06-04T14:15:10;3.75;;;2.60;;
64684;SDS011;51109;47.414;18.954;2023-06-04T14:17:37;5.60;;;2.95;;
64684;SDS011;51109;47.414;18.954;2023-06-04T14:20:04;4.43;;;3.28;;
64684;SDS011;51109;47.414;18.954;2023-06-04T14:22:34;3.20;;;2.85;;
64684;SDS011;51109;47.414;18.954;2023-06-04T14:25:02;5.03;;;2.83;;
64684;SDS011;51109;47.414;18.954;2023-06-04T14:27:28;7.82;;;3.13;;
64684;SDS011;51109;47.414;18.954;2023-06-04T14:29:55;4.20;;;2.78;;
64684;SDS011;51109;47.414;18.954;2023-06-04T14:32:21;5.88;;;2.80;;
64684;SDS011;51109;47.414;18.954;2023-06-04T14:34:47;5.22;;;2.95;;
64684;SDS011;51109;47.414;18.954;2023-06-04T14:37:13;6.03;;;3.05;;
64684;SDS011;51109;47.414;18.954;2023-06-04T14:39:39;5.65;;;3.10;;
64684;SDS011;51109;47.414;18.954;2023-06-04T14:42:05;6.35;;;3.33;;
64684;SDS011;51109;47.414;18.954;2023-06-04T14:44:31;5.72;;;3.30;;
64684;SDS011;51109;47.414;18.954;2023-06-04T14:46:57;7.13;;;2.85;;
64684;SDS011;51109;47.414;18.954;2023-06-04T14:49:24;6.07;;;3.80;;
64684;SDS011;51109;47.414;18.954;2023-06-04T14:51:50;8.93;;;3.58;;